sensor_id;sensor_type;location;lat;lon;timestamp;pressure;altitude;pressure_sealevel;temperature;humidity
79028;BME280;68427;48.476;19.102;2023-05-08T00:00:42;97881.16;;;9.14;70.48
79028;BME280;68427;48.476;19.102;2023-05-08T00:03:08;97893.88;;;8.94;71.18
79028;BME280;68427;48.476;19.102;2023-05-08T00:05:35;97890.84;;;8.82;71.36
79028;BME280;68427;48.476;19.102;2023-05-08T00:08:01;97887.84;;;8.71;71.42
79028;BME280;68427;48.476;19.102;2023-05-08T00:10:27;97898.81;;;8.66;71.24
79028;BME280;68427;48.476;19.102;2023-05-08T00:12:53;97898.97;;;8.64;71.82
79028;BME280;68427;48.476;19.102;2023-05-08T00:15:19;97904.06;;;8.58;71.35
79028;BME280;68427;48.476;19.102;2023-05-08T00:17:44;97903.13;;;8.51;71.29
79028;BME280;68427;48.476;19.102;2023-05-08T00:20:11;97902.34;;;8.42;71.39
79028;BME280;68427;48.476;19.102;2023-05-08T00:22:38;97907.13;;;8.30;72.26
79028;BME280;68427;48.476;19.102;2023-05-08T00:25:04;97907.13;;;8.22;72.41
79028;BME280;68427;48.476;19.102;2023-05-08T00:27:30;97910.44;;;8.16;72.13
79028;BME280;68427;48.476;19.102;2023-05-08T00:29:56;97911.09;;;8.10;72.32
79028;BME280;68427;48.476;19.102;2023-05-08T00:32:22;97921.41;;;8.03;72.82
79028;BME280;68427;48.476;19.102;2023-05-08T00:34:48;97922.09;;;7.89;73.32
79028;BME280;68427;48.476;19.102;2023-05-08T00:37:14;97927.31;;;7.81;74.14
79028;BME280;68427;48.476;19.102;2023-05-08T00:39:41;97931.09;;;7.78;73.88
79028;BME280;68427;48.476;19.102;2023-05-08T00:42:06;97922.31;;;7.63;75.27
79028;BME280;68427;48.476;19.102;2023-05-08T00:44:32;97931.41;;;7.67;75.18
79028;BME280;68427;48.476;19.102;2023-05-08T00:46:58;97924.91;;;7.63;75.53
79028;BME280;68427;48.476;19.102;2023-05-08T00:49:24;97931.09;;;7.62;75.37
79028;BME280;68427;48.476;19.102;2023-05-08T00:51:52;97940.56;;;7.63;75.74
79028;BME280;68427;48.476;19.102;2023-05-08T00:54:19;97938.44;;;7.58;76.54
79028;BME280;68427;48.476;19.102;2023-05-08T00:56:48;97926.84;;;7.69;76.17
79028;BME280;68427;48.476;19.102;2023-05-08T00:59:15;97931.56;;;7.73;75.36
79028;BME280;68427;48.476;19.102;2023-05-08T01:01:43;97938.59;;;7.73;75.88
79028;BME280;68427;48.476;19.102;2023-05-08T01:04:09;97936.63;;;7.75;75.95
79028;BME280;68427;48.476;19.102;2023-05-08T01:06:35;97938.22;;;7.84;75.95
79028;BME280;68427;48.476;19.102;2023-05-08T01:09:04;97946.38;;;7.89;75.58
79028;BME280;68427;48.476;19.102;2023-05-08T01:11:36;97948.94;;;7.97;75.19
79028;BME280;68427;48.476;19.102;2023-05-08T01:14:10;97945.53;;;8.05;74.73
79028;BME280;68427;48.476;19.102;2023-05-08T01:16:43;97943.22;;;8.10;75.09
79028;BME280;68427;48.476;19.102;2023-05-08T01:19:36;97944.16;;;8.17;75.26
79028;BME280;68427;48.476;19.102;2023-05-08T01:22:11;97947.06;;;8.22;75.48
79028;BME280;68427;48.476;19.102;2023-05-08T01:24:54;97947.41;;;8.28;74.41
79028;BME280;68427;48.476;19.102;2023-05-08T01:27:44;97947.56;;;8.26;74.87
79028;BME280;68427;48.476;19.102;2023-05-08T01:30:43;97954.41;;;8.27;74.17
79028;BME280;68427;48.476;19.102;2023-05-08T01:33:18;97948.88;;;8.30;74.94
79028;BME280;68427;48.476;19.102;2023-05-08T01:35:49;97950.50;;;8.31;75.36
79028;BME280;68427;48.476;19.102;2023-05-08T01:38:21;97956.34;;;8.33;75.43
79028;BME280;68427;48.476;19.102;2023-05-08T01:40:55;97948.53;;;8.33;74.16
79028;BME280;68427;48.476;19.102;2023-05-08T01:43:25;97952.75;;;8.34;74.51
79028;BME280;68427;48.476;19.102;2023-05-08T01:45:54;97959.31;;;8.30;72.79
79028;BME280;68427;48.476;19.102;2023-05-08T01:48:27;97958.66;;;8.28;73.42
79028;BME280;68427;48.476;19.102;2023-05-08T01:50:59;97954.59;;;8.26;73.63
79028;BME280;68427;48.476;19.102;2023-05-08T01:53:28;97959.81;;;8.26;73.69
79028;BME280;68427;48.476;19.102;2023-05-08T01:55:57;97963.88;;;8.20;74.07
79028;BME280;68427;48.476;19.102;2023-05-08T01:58:26;97957.50;;;8.22;73.89
79028;BME280;68427;48.476;19.102;2023-05-08T02:00:52;97954.09;;;8.22;73.38
79028;BME280;68427;48.476;19.102;2023-05-08T02:03:20;97954.59;;;8.26;73.00
79028;BME280;68427;48.476;19.102;2023-05-08T02:05:49;97961.94;;;8.30;72.80
79028;BME280;68427;48.476;19.102;2023-05-08T02:08:18;97946.56;;;8.27;72.17
79028;BME280;68427;48.476;19.102;2023-05-08T02:10:45;97957.34;;;8.24;72.39
79028;BME280;68427;48.476;19.102;2023-05-08T02:13:13;97961.81;;;8.15;71.79
79028;BME280;68427;48.476;19.102;2023-05-08T02:15:44;97954.31;;;8.04;71.45
79028;BME280;68427;48.476;19.102;2023-05-08T02:18:13;97964.94;;;7.94;72.25
79028;BME280;68427;48.476;19.102;2023-05-08T02:20:40;97971.16;;;7.85;72.46
79028;BME280;68427;48.476;19.102;2023-05-08T02:23:08;97967.59;;;7.78;72.22
79028;BME280;68427;48.476;19.102;2023-05-08T02:25:35;97961.41;;;7.71;73.10
79028;BME280;68427;48.476;19.102;2023-05-08T02:28:01;97958.81;;;7.63;73.26
79028;BME280;68427;48.476;19.102;2023-05-08T02:30:28;97963.03;;;7.55;74.19
79028;BME280;68427;48.476;19.102;2023-05-08T02:32:54;97972.16;;;7.51;73.52
79028;BME280;68427;48.476;19.102;2023-05-08T02:35:21;97963.38;;;7.36;74.57
79028;BME280;68427;48.476;19.102;2023-05-08T02:37:50;97980.81;;;7.27;74.30
79028;BME280;68427;48.476;19.102;2023-05-08T02:40:19;97975.56;;;7.19;74.41
79028;BME280;68427;48.476;19.102;2023-05-08T02:42:47;97975.88;;;7.08;75.34
79028;BME280;68427;48.476;19.102;2023-05-08T02:45:13;97974.56;;;7.04;75.54
79028;BME280;68427;48.476;19.102;2023-05-08T02:47:45;97979.63;;;7.05;75.34
79028;BME280;68427;48.476;19.102;2023-05-08T02:50:17;97981.56;;;6.95;76.16
79028;BME280;68427;48.476;19.102;2023-05-08T02:52:46;97982.69;;;6.92;76.45
79028;BME280;68427;48.476;19.102;2023-05-08T02:55:22;97985.28;;;6.92;75.98
79028;BME280;68427;48.476;19.102;2023-05-08T02:57:55;97986.44;;;6.90;76.61
79028;BME280;68427;48.476;19.102;2023-05-08T03:00:29;97986.91;;;6.93;77.03
79028;BME280;68427;48.476;19.102;2023-05-08T03:02:59;97978.91;;;6.87;77.05
79028;BME280;68427;48.476;19.102;2023-05-08T03:05:29;97989.03;;;6.90;77.31
79028;BME280;68427;48.476;19.102;2023-05-08T03:07:59;97988.72;;;6.93;77.10
79028;BME280;68427;48.476;19.102;2023-05-08T03:10:30;97988.56;;;7.03;76.46
79028;BME280;68427;48.476;19.102;2023-05-08T03:12:59;97994.13;;;7.08;76.87
79028;BME280;68427;48.476;19.102;2023-05-08T03:15:32;97992.31;;;7.08;76.60
79028;BME280;68427;48.476;19.102;2023-05-08T03:18:02;97986.97;;;7.10;75.93
79028;BME280;68427;48.476;19.102;2023-05-08T03:20:34;97991.19;;;7.11;77.18
79028;BME280;68427;48.476;19.102;2023-05-08T03:23:02;97980.63;;;7.12;75.90
79028;BME280;68427;48.476;19.102;2023-05-08T03:25:31;97987.94;;;7.17;76.21
79028;BME280;68427;48.476;19.102;2023-05-08T03:27:59;97983.69;;;7.16;75.90
79028;BME280;68427;48.476;19.102;2023-05-08T03:30:25;97987.44;;;7.13;77.27
79028;BME280;68427;48.476;19.102;2023-05-08T03:32:52;97989.72;;;7.17;76.11
79028;BME280;68427;48.476;19.102;2023-05-08T03:35:19;97995.13;;;7.23;75.63
79028;BME280;68427;48.476;19.102;2023-05-08T03:37:45;97995.13;;;7.31;75.58
79028;BME280;68427;48.476;19.102;2023-05-08T03:40:12;98006.03;;;7.35;75.49
79028;BME280;68427;48.476;19.102;2023-05-08T03:42:40;98000.97;;;7.42;74.63
79028;BME280;68427;48.476;19.102;2023-05-08T03:45:08;98003.63;;;7.50;73.72
79028;BME280;68427;48.476;19.102;2023-05-08T03:47:35;97994.31;;;7.55;73.71
79028;BME280;68427;48.476;19.102;2023-05-08T03:50:02;97999.88;;;7.61;74.37
79028;BME280;68427;48.476;19.102;2023-05-08T03:52:28;97996.44;;;7.60;73.07
79028;BME280;68427;48.476;19.102;2023-05-08T03:54:54;98004.59;;;7.65;74.88
79028;BME280;68427;48.476;19.102;2023-05-08T03:57:20;98003.78;;;7.73;73.86
79028;BME280;68427;48.476;19.102;2023-05-08T03:59:53;98003.78;;;7.73;72.57
79028;BME280;68427;48.476;19.102;2023-05-08T04:02:30;98012.38;;;7.82;72.12
79028;BME280;68427;48.476;19.102;2023-05-08T04:05:01;98014.34;;;7.88;71.71
79028;BME280;68427;48.476;19.102;2023-05-08T04:07:31;98017.75;;;7.96;71.05
79028;BME280;68427;48.476;19.102;2023-05-08T04:10:06;98018.88;;;8.02;71.25
79028;BME280;68427;48.476;19.102;2023-05-08T04:12:38;98019.84;;;8.09;71.59
79028;BME280;68427;48.476;19.102;2023-05-08T04:15:09;98019.69;;;8.19;71.77
79028;BME280;68427;48.476;19.102;2023-05-08T04:17:41;98022.28;;;8.19;71.02
79028;BME280;68427;48.476;19.102;2023-05-08T04:20:09;98020.50;;;8.28;70.05
79028;BME280;68427;48.476;19.102;2023-05-08T04:22:38;98018.81;;;8.35;70.69
79028;BME280;68427;48.476;19.102;2023-05-08T04:25:06;98026.97;;;8.40;71.40
79028;BME280;68427;48.476;19.102;2023-05-08T04:27:33;98026.03;;;8.41;70.46
79028;BME280;68427;48.476;19.102;2023-05-08T04:30:00;98026.50;;;8.44;69.95
79028;BME280;68427;48.476;19.102;2023-05-08T04:32:28;98027.78;;;8.49;69.68
79028;BME280;68427;48.476;19.102;2023-05-08T04:34:54;98031.06;;;8.42;70.47
79028;BME280;68427;48.476;19.102;2023-05-08T04:37:23;98035.47;;;8.42;68.96
79028;BME280;68427;48.476;19.102;2023-05-08T04:39:49;98042.97;;;8.45;69.03
79028;BME280;68427;48.476;19.102;2023-05-08T04:42:15;98048.34;;;8.52;69.99
79028;BME280;68427;48.476;19.102;2023-05-08T04:44:41;98049.63;;;8.56;70.50
79028;BME280;68427;48.476;19.102;2023-05-08T04:47:06;98051.22;;;8.65;68.91
79028;BME280;68427;48.476;19.102;2023-05-08T04:49:33;98039.16;;;8.64;68.00
79028;BME280;68427;48.476;19.102;2023-05-08T04:51:59;98047.59;;;8.74;67.74
79028;BME280;68427;48.476;19.102;2023-05-08T04:54:26;98055.09;;;8.77;65.99
79028;BME280;68427;48.476;19.102;2023-05-08T04:56:51;98045.91;;;8.90;64.26
79028;BME280;68427;48.476;19.102;2023-05-08T04:59:17;98037.34;;;9.04;63.50
79028;BME280;68427;48.476;19.102;2023-05-08T05:01:45;98042.66;;;9.19;62.97
79028;BME280;68427;48.476;19.102;2023-05-08T05:04:11;98043.84;;;9.39;62.72
79028;BME280;68427;48.476;19.102;2023-05-08T05:06:38;98031.50;;;9.48;60.28
79028;BME280;68427;48.476;19.102;2023-05-08T05:09:03;98043.16;;;9.68;60.21
79028;BME280;68427;48.476;19.102;2023-05-08T05:11:29;98046.56;;;9.92;59.25
79028;BME280;68427;48.476;19.102;2023-05-08T05:13:55;98051.94;;;10.13;58.56
79028;BME280;68427;48.476;19.102;2023-05-08T05:16:21;98045.50;;;10.39;58.76
79028;BME280;68427;48.476;19.102;2023-05-08T05:18:46;98050.19;;;10.58;56.54
79028;BME280;68427;48.476;19.102;2023-05-08T05:21:12;98049.72;;;10.70;56.34
79028;BME280;68427;48.476;19.102;2023-05-08T05:23:39;98044.19;;;10.94;55.20
79028;BME280;68427;48.476;19.102;2023-05-08T05:26:05;98050.06;;;11.11;55.12
79028;BME280;68427;48.476;19.102;2023-05-08T05:28:31;98046.72;;;11.39;55.13
79028;BME280;68427;48.476;19.102;2023-05-08T05:30:57;98042.22;;;11.54;53.69
79028;BME280;68427;48.476;19.102;2023-05-08T05:33:22;98049.72;;;11.79;53.01
79028;BME280;68427;48.476;19.102;2023-05-08T05:35:48;98046.91;;;12.02;52.57
79028;BME280;68427;48.476;19.102;2023-05-08T05:38:14;98055.81;;;12.29;52.64
79028;BME280;68427;48.476;19.102;2023-05-08T05:40:41;98058.69;;;12.41;50.15
79028;BME280;68427;48.476;19.102;2023-05-08T05:43:07;98056.50;;;12.79;48.96
79028;BME280;68427;48.476;19.102;2023-05-08T05:45:32;98053.78;;;13.14;47.88
79028;BME280;68427;48.476;19.102;2023-05-08T05:47:58;98055.34;;;13.50;46.82
79028;BME280;68427;48.476;19.102;2023-05-08T05:50:24;98052.56;;;13.85;47.14
79028;BME280;68427;48.476;19.102;2023-05-08T05:52:51;98059.63;;;14.31;44.83
79028;BME280;68427;48.476;19.102;2023-05-08T05:55:17;98056.19;;;14.50;44.63
79028;BME280;68427;48.476;19.102;2023-05-08T05:57:44;98056.91;;;14.90;43.55
79028;BME280;68427;48.476;19.102;2023-05-08T06:00:10;98055.28;;;15.34;42.36
79028;BME280;68427;48.476;19.102;2023-05-08T06:02:36;98066.09;;;16.22;41.31
79028;BME280;68427;48.476;19.102;2023-05-08T06:05:02;98067.84;;;16.71;40.85
79028;BME280;68427;48.476;19.102;2023-05-08T06:07:28;98064.06;;;17.04;39.25
79028;BME280;68427;48.476;19.102;2023-05-08T06:09:54;98072.19;;;17.21;38.04
79028;BME280;68427;48.476;19.102;2023-05-08T06:12:20;98071.09;;;17.59;37.05
79028;BME280;68427;48.476;19.102;2023-05-08T06:14:48;98071.16;;;17.82;37.80
79028;BME280;68427;48.476;19.102;2023-05-08T06:17:16;98067.63;;;17.88;36.40
79028;BME280;68427;48.476;19.102;2023-05-08T06:19:42;98064.44;;;18.33;35.78
79028;BME280;68427;48.476;19.102;2023-05-08T06:22:07;98063.97;;;18.37;35.44
79028;BME280;68427;48.476;19.102;2023-05-08T06:24:33;98067.09;;;18.57;35.38
79028;BME280;68427;48.476;19.102;2023-05-08T06:26:59;98069.38;;;18.65;34.88
79028;BME280;68427;48.476;19.102;2023-05-08T06:29:25;98068.13;;;18.80;34.83
79028;BME280;68427;48.476;19.102;2023-05-08T06:31:52;98073.03;;;18.99;34.28
79028;BME280;68427;48.476;19.102;2023-05-08T06:34:18;98069.63;;;19.16;33.01
79028;BME280;68427;48.476;19.102;2023-05-08T06:36:44;98074.09;;;19.56;32.55
79028;BME280;68427;48.476;19.102;2023-05-08T06:39:09;98073.50;;;19.65;32.63
79028;BME280;68427;48.476;19.102;2023-05-08T06:41:35;98074.13;;;19.84;33.17
79028;BME280;68427;48.476;19.102;2023-05-08T06:44:01;98074.75;;;20.42;32.28
79028;BME280;68427;48.476;19.102;2023-05-08T06:46:27;98070.88;;;20.33;31.07
79028;BME280;68427;48.476;19.102;2023-05-08T06:48:55;98072.06;;;20.98;30.29
79028;BME280;68427;48.476;19.102;2023-05-08T06:51:21;98073.03;;;20.70;30.71
79028;BME280;68427;48.476;19.102;2023-05-08T06:53:47;98084.06;;;21.40;29.38
79028;BME280;68427;48.476;19.102;2023-05-08T06:56:13;98077.56;;;21.13;30.61
79028;BME280;68427;48.476;19.102;2023-05-08T06:58:38;98070.03;;;21.27;29.89
79028;BME280;68427;48.476;19.102;2023-05-08T07:01:04;98076.16;;;21.50;29.50
79028;BME280;68427;48.476;19.102;2023-05-08T07:03:30;98074.00;;;22.06;29.15
79028;BME280;68427;48.476;19.102;2023-05-08T07:05:57;98073.97;;;22.33;28.50
79028;BME280;68427;48.476;19.102;2023-05-08T07:08:23;98088.97;;;22.07;28.24
79028;BME280;68427;48.476;19.102;2023-05-08T07:10:49;98083.38;;;22.94;27.35
79028;BME280;68427;48.476;19.102;2023-05-08T07:13:16;98075.00;;;23.22;26.52
79028;BME280;68427;48.476;19.102;2023-05-08T07:15:44;98075.13;;;23.79;25.67
79028;BME280;68427;48.476;19.102;2023-05-08T07:18:10;98084.06;;;23.26;26.35
79028;BME280;68427;48.476;19.102;2023-05-08T07:20:35;98079.16;;;24.12;25.10
79028;BME280;68427;48.476;19.102;2023-05-08T07:23:02;98075.91;;;24.15;24.88
79028;BME280;68427;48.476;19.102;2023-05-08T07:25:28;98070.59;;;24.25;24.47
79028;BME280;68427;48.476;19.102;2023-05-08T07:27:53;98070.03;;;24.33;24.87
79028;BME280;68427;48.476;19.102;2023-05-08T07:30:19;98076.53;;;25.08;24.16
79028;BME280;68427;48.476;19.102;2023-05-08T07:32:45;98077.28;;;25.29;23.91
79028;BME280;68427;48.476;19.102;2023-05-08T07:35:11;98085.25;;;25.44;23.89
79028;BME280;68427;48.476;19.102;2023-05-08T07:37:37;98076.97;;;25.85;23.47
79028;BME280;68427;48.476;19.102;2023-05-08T07:40:05;98079.69;;;26.14;22.39
79028;BME280;68427;48.476;19.102;2023-05-08T07:42:37;98074.97;;;26.30;23.02
79028;BME280;68427;48.476;19.102;2023-05-08T07:45:03;98075.56;;;27.04;20.97
79028;BME280;68427;48.476;19.102;2023-05-08T07:47:29;98080.69;;;26.23;21.56
79028;BME280;68427;48.476;19.102;2023-05-08T07:49:54;98079.84;;;27.05;21.03
79028;BME280;68427;48.476;19.102;2023-05-08T07:52:20;98082.72;;;27.57;21.27
79028;BME280;68427;48.476;19.102;2023-05-08T07:54:46;98082.91;;;26.99;21.01
79028;BME280;68427;48.476;19.102;2023-05-08T07:57:13;98088.16;;;27.09;20.70
79028;BME280;68427;48.476;19.102;2023-05-08T07:59:39;98086.25;;;27.33;20.51
79028;BME280;68427;48.476;19.102;2023-05-08T08:02:04;98083.56;;;27.33;21.03
79028;BME280;68427;48.476;19.102;2023-05-08T08:04:31;98078.31;;;26.99;20.53
79028;BME280;68427;48.476;19.102;2023-05-08T08:06:57;98076.66;;;26.50;22.28
79028;BME280;68427;48.476;19.102;2023-05-08T08:09:23;98074.53;;;25.44;23.83
79028;BME280;68427;48.476;19.102;2023-05-08T08:11:48;98073.19;;;25.91;23.85
79028;BME280;68427;48.476;19.102;2023-05-08T08:14:15;98071.13;;;25.73;23.43
79028;BME280;68427;48.476;19.102;2023-05-08T08:16:41;98070.59;;;26.68;22.70
79028;BME280;68427;48.476;19.102;2023-05-08T08:19:07;98065.00;;;27.89;21.66
79028;BME280;68427;48.476;19.102;2023-05-08T08:21:33;98073.31;;;28.25;20.02
79028;BME280;68427;48.476;19.102;2023-05-08T08:23:59;98071.78;;;28.93;19.25
79028;BME280;68427;48.476;19.102;2023-05-08T08:26:24;98069.66;;;29.32;18.63
79028;BME280;68427;48.476;19.102;2023-05-08T08:28:50;98069.88;;;29.71;19.69
79028;BME280;68427;48.476;19.102;2023-05-08T08:31:17;98077.88;;;29.40;18.61
79028;BME280;68427;48.476;19.102;2023-05-08T08:33:44;98074.50;;;29.71;17.61
79028;BME280;68427;48.476;19.102;2023-05-08T08:36:13;98069.97;;;30.03;18.69
79028;BME280;68427;48.476;19.102;2023-05-08T08:38:39;98065.47;;;30.21;18.11
79028;BME280;68427;48.476;19.102;2023-05-08T08:41:05;98073.38;;;30.40;17.51
79028;BME280;68427;48.476;19.102;2023-05-08T08:43:31;98063.69;;;30.16;18.50
79028;BME280;68427;48.476;19.102;2023-05-08T08:45:57;98061.59;;;31.15;17.07
79028;BME280;68427;48.476;19.102;2023-05-08T08:48:27;98067.53;;;30.46;16.76
79028;BME280;68427;48.476;19.102;2023-05-08T08:50:58;98063.47;;;31.06;16.58
79028;BME280;68427;48.476;19.102;2023-05-08T08:53:32;98066.19;;;30.66;18.08
79028;BME280;68427;48.476;19.102;2023-05-08T08:56:00;98062.09;;;30.77;16.67
79028;BME280;68427;48.476;19.102;2023-05-08T08:58:31;98059.97;;;31.14;14.73
79028;BME280;68427;48.476;19.102;2023-05-08T09:00:59;98057.91;;;31.37;16.58
79028;BME280;68427;48.476;19.102;2023-05-08T09:03:26;98054.91;;;31.82;15.75
79028;BME280;68427;48.476;19.102;2023-05-08T09:05:52;98045.97;;;31.30;16.05
79028;BME280;68427;48.476;19.102;2023-05-08T09:08:18;98064.16;;;30.41;17.45
79028;BME280;68427;48.476;19.102;2023-05-08T09:10:45;98058.75;;;30.81;16.71
79028;BME280;68427;48.476;19.102;2023-05-08T09:13:10;98051.44;;;31.99;16.68
79028;BME280;68427;48.476;19.102;2023-05-08T09:15:36;98050.97;;;31.71;17.70
79028;BME280;68427;48.476;19.102;2023-05-08T09:18:02;98052.34;;;32.21;16.78
79028;BME280;68427;48.476;19.102;2023-05-08T09:20:29;98059.69;;;31.33;16.53
79028;BME280;68427;48.476;19.102;2023-05-08T09:22:56;98050.63;;;31.81;15.97
79028;BME280;68427;48.476;19.102;2023-05-08T09:25:22;98049.97;;;32.66;15.61
79028;BME280;68427;48.476;19.102;2023-05-08T09:27:48;98054.41;;;33.30;14.55
79028;BME280;68427;48.476;19.102;2023-05-08T09:30:13;98057.47;;;32.14;15.86
79028;BME280;68427;48.476;19.102;2023-05-08T09:32:40;98050.44;;;32.13;15.82
79028;BME280;68427;48.476;19.102;2023-05-08T09:35:08;98053.75;;;32.74;15.59
79028;BME280;68427;48.476;19.102;2023-05-08T09:37:38;98054.50;;;32.54;15.66
79028;BME280;68427;48.476;19.102;2023-05-08T09:40:18;98050.44;;;32.68;15.71
79028;BME280;68427;48.476;19.102;2023-05-08T09:42:44;98051.75;;;30.40;17.50
79028;BME280;68427;48.476;19.102;2023-05-08T09:45:10;98041.69;;;29.64;17.91
79028;BME280;68427;48.476;19.102;2023-05-08T09:47:36;98042.75;;;31.02;16.88
79028;BME280;68427;48.476;19.102;2023-05-08T09:50:05;98050.63;;;31.47;16.23
79028;BME280;68427;48.476;19.102;2023-05-08T09:52:32;98045.78;;;32.22;16.66
79028;BME280;68427;48.476;19.102;2023-05-08T09:55:00;98037.47;;;32.27;15.11
79028;BME280;68427;48.476;19.102;2023-05-08T09:57:27;98033.69;;;31.15;15.94
79028;BME280;68427;48.476;19.102;2023-05-08T09:59:59;98031.41;;;30.82;16.26
79028;BME280;68427;48.476;19.102;2023-05-08T10:02:26;98041.41;;;31.74;17.36
79028;BME280;68427;48.476;19.102;2023-05-08T10:04:51;98029.13;;;31.33;16.49
79028;BME280;68427;48.476;19.102;2023-05-08T10:07:26;98033.09;;;30.69;17.26
79028;BME280;68427;48.476;19.102;2023-05-08T10:10:00;98030.59;;;30.82;16.08
79028;BME280;68427;48.476;19.102;2023-05-08T10:12:26;98030.22;;;30.66;17.35
79028;BME280;68427;48.476;19.102;2023-05-08T10:14:52;98017.19;;;30.76;16.17
79028;BME280;68427;48.476;19.102;2023-05-08T10:17:24;98028.44;;;29.99;18.77
79028;BME280;68427;48.476;19.102;2023-05-08T10:19:56;98020.28;;;30.12;18.54
79028;BME280;68427;48.476;19.102;2023-05-08T10:22:24;98028.16;;;30.00;18.08
79028;BME280;68427;48.476;19.102;2023-05-08T10:24:53;98011.50;;;29.84;18.09
79028;BME280;68427;48.476;19.102;2023-05-08T10:27:25;98017.22;;;29.60;18.13
79028;BME280;68427;48.476;19.102;2023-05-08T10:29:55;98017.66;;;27.88;17.10
79028;BME280;68427;48.476;19.102;2023-05-08T10:32:25;98017.22;;;29.83;16.66
79028;BME280;68427;48.476;19.102;2023-05-08T10:34:55;98012.75;;;30.32;17.47
79028;BME280;68427;48.476;19.102;2023-05-08T10:37:23;98011.00;;;30.76;15.55
79028;BME280;68427;48.476;19.102;2023-05-08T10:39:48;98015.06;;;31.05;16.34
79028;BME280;68427;48.476;19.102;2023-05-08T10:42:14;98007.88;;;30.83;16.91
79028;BME280;68427;48.476;19.102;2023-05-08T10:44:42;98011.22;;;30.48;16.54
79028;BME280;68427;48.476;19.102;2023-05-08T10:47:15;98005.97;;;30.92;15.49
79028;BME280;68427;48.476;19.102;2023-05-08T10:49:50;97998.00;;;30.87;15.20
79028;BME280;68427;48.476;19.102;2023-05-08T10:52:20;97995.28;;;30.87;15.28
79028;BME280;68427;48.476;19.102;2023-05-08T10:55:16;97997.88;;;31.09;15.33
79028;BME280;68427;48.476;19.102;2023-05-08T10:58:01;98005.31;;;30.86;15.63
79028;BME280;68427;48.476;19.102;2023-05-08T11:00:32;97991.06;;;31.55;15.43
79028;BME280;68427;48.476;19.102;2023-05-08T11:03:18;97982.59;;;30.96;15.42
79028;BME280;68427;48.476;19.102;2023-05-08T11:05:44;97988.34;;;31.64;14.24
79028;BME280;68427;48.476;19.102;2023-05-08T11:08:14;97978.78;;;31.49;15.42
79028;BME280;68427;48.476;19.102;2023-05-08T11:10:42;97976.97;;;28.03;17.42
79028;BME280;68427;48.476;19.102;2023-05-08T11:13:10;97979.09;;;28.89;17.71
79028;BME280;68427;48.476;19.102;2023-05-08T11:15:39;97978.25;;;29.53;17.65
79028;BME280;68427;48.476;19.102;2023-05-08T11:18:05;97979.94;;;29.26;17.08
79028;BME280;68427;48.476;19.102;2023-05-08T11:20:37;97978.63;;;29.82;17.07
79028;BME280;68427;48.476;19.102;2023-05-08T11:23:21;97974.59;;;30.02;15.48
79028;BME280;68427;48.476;19.102;2023-05-08T11:25:47;97975.34;;;29.94;17.13
79028;BME280;68427;48.476;19.102;2023-05-08T11:28:15;97960.19;;;30.15;16.03
79028;BME280;68427;48.476;19.102;2023-05-08T11:30:43;97964.16;;;29.42;16.68
79028;BME280;68427;48.476;19.102;2023-05-08T11:33:16;97964.06;;;27.53;17.08
79028;BME280;68427;48.476;19.102;2023-05-08T11:35:47;97956.31;;;27.98;18.59
79028;BME280;68427;48.476;19.102;2023-05-08T11:38:14;97954.66;;;28.30;17.54
79028;BME280;68427;48.476;19.102;2023-05-08T11:40:47;97954.34;;;28.18;18.43
79028;BME280;68427;48.476;19.102;2023-05-08T11:43:24;97955.84;;;28.38;17.68
79028;BME280;68427;48.476;19.102;2023-05-08T11:45:53;97939.56;;;27.88;19.34
79028;BME280;68427;48.476;19.102;2023-05-08T11:48:19;97942.75;;;27.90;18.69
79028;BME280;68427;48.476;19.102;2023-05-08T11:50:45;97935.72;;;27.75;18.90
79028;BME280;68427;48.476;19.102;2023-05-08T11:53:11;97946.63;;;27.84;18.80
79028;BME280;68427;48.476;19.102;2023-05-08T11:55:37;97938.13;;;27.06;17.55
79028;BME280;68427;48.476;19.102;2023-05-08T11:58:10;97945.88;;;26.69;20.46
79028;BME280;68427;48.476;19.102;2023-05-08T12:00:40;97940.78;;;27.44;18.30
79028;BME280;68427;48.476;19.102;2023-05-08T12:03:13;97939.97;;;27.29;18.25
79028;BME280;68427;48.476;19.102;2023-05-08T12:05:41;97932.25;;;27.55;18.37
79028;BME280;68427;48.476;19.102;2023-05-08T12:08:07;97928.97;;;26.69;19.03
79028;BME280;68427;48.476;19.102;2023-05-08T12:10:39;97935.72;;;27.23;17.26
79028;BME280;68427;48.476;19.102;2023-05-08T12:13:14;97934.59;;;27.29;15.71
79028;BME280;68427;48.476;19.102;2023-05-08T12:15:40;97935.91;;;27.46;18.13
79028;BME280;68427;48.476;19.102;2023-05-08T12:18:06;97935.38;;;27.30;17.89
79028;BME280;68427;48.476;19.102;2023-05-08T12:20:33;97924.78;;;27.52;18.21
79028;BME280;68427;48.476;19.102;2023-05-08T12:23:00;97922.28;;;27.42;19.31
79028;BME280;68427;48.476;19.102;2023-05-08T12:25:26;97924.25;;;27.36;20.00
79028;BME280;68427;48.476;19.102;2023-05-08T12:27:52;97911.59;;;27.37;19.03
79028;BME280;68427;48.476;19.102;2023-05-08T12:30:18;97931.63;;;24.24;24.14
79028;BME280;68427;48.476;19.102;2023-05-08T12:32:45;97929.50;;;24.21;22.63
79028;BME280;68427;48.476;19.102;2023-05-08T12:35:11;97928.53;;;23.81;20.48
79028;BME280;68427;48.476;19.102;2023-05-08T12:37:39;97933.84;;;23.86;22.35
79028;BME280;68427;48.476;19.102;2023-05-08T12:40:06;97949.13;;;23.85;25.03
79028;BME280;68427;48.476;19.102;2023-05-08T12:42:42;97940.25;;;23.59;26.91
79028;BME280;68427;48.476;19.102;2023-05-08T12:45:08;97938.13;;;23.25;26.07
79028;BME280;68427;48.476;19.102;2023-05-08T12:47:41;97946.91;;;23.00;27.21
79028;BME280;68427;48.476;19.102;2023-05-08T12:50:09;97948.25;;;21.92;28.84
79028;BME280;68427;48.476;19.102;2023-05-08T12:52:36;97948.94;;;21.77;29.15
79028;BME280;68427;48.476;19.102;2023-05-08T12:55:04;97947.97;;;22.36;29.27
79028;BME280;68427;48.476;19.102;2023-05-08T12:57:29;97955.78;;;22.06;28.70
79028;BME280;68427;48.476;19.102;2023-05-08T13:00:02;97953.38;;;22.52;29.99